createdAt,value
2018-12-15T00:01:48.939Z,14.15
2018-12-15T00:04:16.915Z,12.80
2018-12-15T00:06:44.965Z,13.03
2018-12-15T00:09:13.656Z,12.30
2018-12-15T00:11:42.158Z,12.17
2018-12-15T00:14:10.155Z,13.27
2018-12-15T00:16:38.177Z,14.33
2018-12-15T00:19:06.184Z,13.40
2018-12-15T00:21:34.184Z,12.37
2018-12-15T00:24:02.226Z,13.63
2018-12-15T00:26:30.215Z,13.23
2018-12-15T00:28:58.181Z,12.70
2018-12-15T00:31:26.511Z,13.83
2018-12-15T00:33:55.174Z,14.77
2018-12-15T00:36:23.133Z,14.77
2018-12-15T00:38:50.923Z,14.87
2018-12-15T00:41:18.909Z,14.73
2018-12-15T00:43:46.898Z,14.30
2018-12-15T00:46:14.647Z,12.77
2018-12-15T00:48:42.637Z,13.70
2018-12-15T00:51:10.655Z,15.00
2018-12-15T00:53:38.705Z,14.37
2018-12-15T00:56:06.736Z,15.13
2018-12-15T00:58:34.814Z,14.17
2018-12-15T01:01:02.854Z,14.20
2018-12-15T01:03:30.852Z,13.25
2018-12-15T01:05:58.834Z,14.57
2018-12-15T01:08:26.862Z,14.73
2018-12-15T01:10:54.910Z,14.63
2018-12-15T01:13:22.633Z,14.32
2018-12-15T01:15:50.394Z,14.73
2018-12-15T01:18:18.506Z,14.27
2018-12-15T01:20:46.477Z,15.13
2018-12-15T01:23:14.365Z,13.60
2018-12-15T01:25:42.383Z,14.63
2018-12-15T01:28:10.409Z,14.80
2018-12-15T01:30:38.449Z,13.70
2018-12-15T01:33:06.455Z,13.93
2018-12-15T01:35:34.442Z,13.55
2018-12-15T01:38:02.484Z,13.90
2018-12-15T01:40:30.518Z,14.43
2018-12-15T01:42:58.328Z,13.87
2018-12-15T01:45:26.399Z,13.23
2018-12-15T01:47:55.579Z,14.52
2018-12-15T01:50:23.290Z,14.53
2018-12-15T01:52:51.312Z,14.98
2018-12-15T01:55:19.359Z,14.23
2018-12-15T01:57:47.391Z,14.60
2018-12-15T02:00:15.421Z,13.33
2018-12-15T02:02:43.388Z,14.73
2018-12-15T02:05:11.447Z,13.33
2018-12-15T02:07:39.817Z,14.73
2018-12-15T02:10:07.901Z,14.35
2018-12-15T02:12:35.652Z,14.47
2018-12-15T02:15:04.212Z,13.83
2018-12-15T02:17:33.757Z,14.93
2018-12-15T02:20:00.241Z,16.98
2018-12-15T02:22:28.729Z,14.03
2018-12-15T02:24:56.763Z,14.40
2018-12-15T02:27:24.766Z,14.17
2018-12-15T02:29:52.533Z,13.83
2018-12-15T02:32:20.277Z,13.83
2018-12-15T02:34:48.285Z,13.53
2018-12-15T02:37:16.322Z,13.60
2018-12-15T02:39:44.324Z,14.75
2018-12-15T02:42:12.382Z,15.97
2018-12-15T02:44:40.500Z,14.07
2018-12-15T02:47:08.528Z,14.87
2018-12-15T02:49:36.515Z,13.97
2018-12-15T02:52:05.962Z,13.87
2018-12-15T02:54:36.895Z,15.13
2018-12-15T02:57:04.609Z,11.93
2018-12-15T02:59:32.614Z,9.67
2018-12-15T03:02:01.262Z,12.57
2018-12-15T03:04:29.328Z,13.52
2018-12-15T03:06:57.493Z,13.43
2018-12-15T03:09:25.484Z,11.57
2018-12-15T03:11:53.603Z,11.20
2018-12-15T03:14:22.241Z,13.38
2018-12-15T03:17:05.931Z,11.38
2018-12-15T03:19:34.986Z,6.47
2018-12-15T03:22:03.125Z,12.30
2018-12-15T03:24:31.454Z,13.60
2018-12-15T03:26:59.589Z,10.18
2018-12-15T03:29:27.617Z,10.55
2018-12-15T03:31:55.445Z,12.47
2018-12-15T03:34:23.479Z,13.52
2018-12-15T03:36:51.510Z,11.60
2018-12-15T03:39:20.179Z,12.13
2018-12-15T03:41:48.256Z,13.07
2018-12-15T03:44:16.016Z,13.68
2018-12-15T03:46:44.175Z,10.80
2018-12-15T03:49:11.966Z,11.77
2018-12-15T03:51:39.966Z,11.57
2018-12-15T03:54:07.717Z,10.33
2018-12-15T03:56:35.706Z,12.07
2018-12-15T03:59:03.814Z,10.17
2018-12-15T04:01:32.677Z,11.60
2018-12-15T04:04:01.074Z,10.93
2018-12-15T04:06:30.421Z,12.18
2018-12-15T04:08:59.299Z,12.70
2018-12-15T04:11:27.247Z,10.27
2018-12-15T04:13:55.284Z,10.97
2018-12-15T04:16:23.263Z,11.00
2018-12-15T04:18:51.187Z,11.13
2018-12-15T04:21:19.173Z,10.63
2018-12-15T04:23:47.157Z,8.13
2018-12-15T04:26:15.240Z,11.00
2018-12-15T04:28:42.981Z,9.27
2018-12-15T04:31:10.693Z,14.25
2018-12-15T04:33:39.314Z,11.48
2018-12-15T04:36:14.153Z,11.67
2018-12-15T04:38:41.929Z,9.53
2018-12-15T04:41:09.927Z,9.90
2018-12-15T04:43:37.666Z,9.90
2018-12-15T04:46:05.420Z,11.53
2018-12-15T04:48:33.216Z,11.13
2018-12-15T04:51:01.673Z,10.93
2018-12-15T04:53:29.749Z,7.50
2018-12-15T04:55:57.836Z,10.93
2018-12-15T04:58:25.819Z,11.13
2018-12-15T05:00:53.521Z,9.80
2018-12-15T05:03:22.870Z,8.87
2018-12-15T05:05:50.068Z,10.10
2018-12-15T05:08:18.127Z,10.17
2018-12-15T05:10:46.745Z,8.37
2018-12-15T05:13:14.471Z,8.33
2018-12-15T05:15:42.234Z,7.67
2018-12-15T05:18:09.734Z,7.90
2018-12-15T05:20:37.719Z,9.20
2018-12-15T05:23:05.844Z,8.93
2018-12-15T05:25:33.863Z,10.37
2018-12-15T05:28:01.580Z,10.67
2018-12-15T05:30:29.336Z,6.97
2018-12-15T05:32:57.653Z,8.97
2018-12-15T05:35:25.700Z,8.23
2018-12-15T05:37:53.436Z,8.07
2018-12-15T05:40:21.183Z,8.97
2018-12-15T05:42:50.997Z,8.60
2018-12-15T05:45:19.828Z,9.87
2018-12-15T05:47:50.215Z,8.97
2018-12-15T05:50:20.690Z,9.23
2018-12-15T05:52:48.820Z,8.53
2018-12-15T05:55:16.870Z,8.73
2018-12-15T05:57:45.615Z,9.63
2018-12-15T06:00:13.365Z,10.43
2018-12-15T06:02:41.696Z,9.80
2018-12-15T06:05:09.454Z,9.97
2018-12-15T06:07:37.462Z,8.38
2018-12-15T06:10:05.549Z,9.73
2018-12-15T06:12:33.515Z,9.90
2018-12-15T06:15:02.183Z,8.13
2018-12-15T06:17:30.104Z,8.00
2018-12-15T06:19:57.842Z,10.17
2018-12-15T06:22:25.521Z,8.67
2018-12-15T06:24:54.205Z,9.70
2018-12-15T06:27:21.903Z,7.57
2018-12-15T06:29:50.340Z,8.77
2018-12-15T06:32:18.473Z,10.30
2018-12-15T06:34:46.467Z,5.67
2018-12-15T06:37:14.457Z,7.40
2018-12-15T06:39:42.539Z,9.43
2018-12-15T06:42:10.494Z,9.00
2018-12-15T06:44:38.469Z,8.83
2018-12-15T06:47:06.466Z,9.77
2018-12-15T06:49:34.506Z,9.63
2018-12-15T06:52:02.210Z,9.80
2018-12-15T06:54:30.337Z,8.67
2018-12-15T06:56:58.904Z,8.07
2018-12-15T06:59:27.475Z,7.17
2018-12-15T07:01:56.265Z,9.27
2018-12-15T07:04:24.341Z,11.10
2018-12-15T07:06:52.354Z,9.57
2018-12-15T07:09:20.694Z,11.90
2018-12-15T07:11:48.434Z,9.87
2018-12-15T07:14:16.582Z,8.67
2018-12-15T07:16:44.401Z,9.77
2018-12-15T07:19:12.386Z,9.70
2018-12-15T07:21:40.371Z,9.57
2018-12-15T07:24:08.860Z,12.43
2018-12-15T07:26:37.040Z,10.23
2018-12-15T07:29:05.040Z,7.83
2018-12-15T07:31:33.070Z,7.13
2018-12-15T07:34:01.112Z,10.67
2018-12-15T07:36:29.609Z,6.57
2018-12-15T07:38:57.971Z,7.07
2018-12-15T07:41:25.972Z,9.53
2018-12-15T07:43:53.759Z,10.50
2018-12-15T07:46:21.778Z,10.87
2018-12-15T07:48:51.469Z,7.50
2018-12-15T07:51:17.290Z,9.90
2018-12-15T07:53:45.317Z,7.00
2018-12-15T07:56:12.999Z,9.33
2018-12-15T07:58:41.118Z,7.97
2018-12-15T08:01:09.141Z,8.30
2018-12-15T08:03:37.650Z,10.13
2018-12-15T08:06:05.753Z,9.93
2018-12-15T08:08:33.485Z,10.90
2018-12-15T08:11:29.486Z,11.60
2018-12-15T08:14:08.955Z,10.20
2018-12-15T08:16:37.048Z,9.17
2018-12-15T08:19:05.949Z,8.27
2018-12-15T08:21:33.138Z,8.00
2018-12-15T08:24:01.666Z,12.10
2018-12-15T08:26:30.240Z,9.23
2018-12-15T08:28:58.271Z,8.83
2018-12-15T08:31:26.259Z,8.87
2018-12-15T08:33:53.979Z,7.77
2018-12-15T08:36:21.992Z,9.47
2018-12-15T08:38:50.071Z,12.20
2018-12-15T08:41:18.021Z,9.80
2018-12-15T08:43:46.242Z,6.93
2018-12-15T08:46:17.047Z,10.97
2018-12-15T08:48:45.055Z,10.30
2018-12-15T08:51:13.100Z,9.43
2018-12-15T08:53:41.244Z,10.02
2018-12-15T08:56:09.248Z,7.50
2018-12-15T08:58:37.818Z,9.67
2018-12-15T09:01:05.786Z,7.77
2018-12-15T09:03:33.230Z,5.00
2018-12-15T09:06:01.436Z,8.27
2018-12-15T09:08:29.426Z,9.90
2018-12-15T09:10:57.162Z,8.07
2018-12-15T09:13:25.457Z,8.40
2018-12-15T09:15:53.517Z,12.20
2018-12-15T09:18:21.490Z,9.10
2018-12-15T09:20:50.060Z,9.50
2018-12-15T09:23:18.055Z,9.30
2018-12-15T09:25:46.063Z,7.30
2018-12-15T09:28:14.123Z,8.90
2018-12-15T09:30:42.153Z,8.47
2018-12-15T09:33:10.179Z,9.03
2018-12-15T09:35:38.213Z,8.03
2018-12-15T09:38:05.943Z,7.97
2018-12-15T09:40:33.524Z,8.00
2018-12-15T09:43:01.600Z,7.00
2018-12-15T09:45:30.259Z,7.03
2018-12-15T09:47:58.176Z,6.13
2018-12-15T09:50:26.367Z,7.80
2018-12-15T09:52:54.211Z,8.17
2018-12-15T09:55:22.749Z,8.40
2018-12-15T09:57:50.804Z,8.80
2018-12-15T10:00:18.481Z,8.43
2018-12-15T10:02:46.475Z,7.67
2018-12-15T10:05:14.495Z,7.23
2018-12-15T10:07:42.495Z,6.97
2018-12-15T10:10:10.536Z,7.23
2018-12-15T10:12:39.123Z,8.67
2018-12-15T10:15:06.815Z,6.70
2018-12-15T10:17:34.548Z,8.43
2018-12-15T10:20:02.648Z,9.90
2018-12-15T10:22:30.656Z,9.57
2018-12-15T10:24:58.679Z,10.27
2018-12-15T10:27:26.438Z,9.37
2018-12-15T10:30:11.983Z,8.67
2018-12-15T10:32:51.875Z,8.17
2018-12-15T10:35:20.650Z,8.87
2018-12-15T10:37:48.773Z,11.00
2018-12-15T10:40:16.776Z,8.27
2018-12-15T10:42:44.824Z,7.97
2018-12-15T10:45:12.588Z,7.13
2018-12-15T10:47:40.316Z,8.57
2018-12-15T10:50:08.916Z,6.33
2018-12-15T10:52:36.407Z,9.63
2018-12-15T10:55:04.294Z,7.97
2018-12-15T10:57:32.065Z,6.97
2018-12-15T11:00:00.020Z,6.73
2018-12-15T11:02:28.348Z,8.13
2018-12-15T11:04:56.032Z,7.20
2018-12-15T11:07:24.531Z,8.77
2018-12-15T11:09:52.232Z,9.27
2018-12-15T11:12:20.838Z,7.00
2018-12-15T11:14:48.903Z,8.20
2018-12-15T11:17:17.028Z,6.97
2018-12-15T11:19:45.029Z,7.80
2018-12-15T11:22:13.012Z,8.73
2018-12-15T11:24:41.037Z,7.50
2018-12-15T11:27:09.009Z,6.93
2018-12-15T11:29:36.713Z,10.53
2018-12-15T11:32:05.005Z,8.40
2018-12-15T11:34:33.117Z,6.40
2018-12-15T11:37:01.570Z,7.27
2018-12-15T11:39:29.731Z,8.00
2018-12-15T11:41:57.409Z,8.50
2018-12-15T11:44:25.769Z,7.90
2018-12-15T11:46:54.251Z,6.33
2018-12-15T11:49:22.242Z,9.30
2018-12-15T11:51:50.829Z,7.97
2018-12-15T11:54:18.898Z,9.50
2018-12-15T11:56:46.926Z,8.80
2018-12-15T11:59:14.899Z,7.43
2018-12-15T12:01:42.995Z,8.60
2018-12-15T12:04:11.559Z,7.07
2018-12-15T12:06:39.587Z,10.03
2018-12-15T12:09:07.639Z,8.33
2018-12-15T12:11:35.595Z,6.33
2018-12-15T12:14:03.621Z,8.87
2018-12-15T12:16:32.049Z,7.67
2018-12-15T12:18:59.775Z,9.17
2018-12-15T12:21:27.797Z,8.70
2018-12-15T12:23:55.839Z,11.67
2018-12-15T12:26:24.170Z,8.90
2018-12-15T12:28:52.288Z,8.90
2018-12-15T12:31:20.865Z,11.10
2018-12-15T12:33:49.122Z,9.50
2018-12-15T12:36:16.918Z,9.93
2018-12-15T12:38:44.804Z,7.23
2018-12-15T12:41:12.815Z,7.40
2018-12-15T12:43:40.850Z,7.03
2018-12-15T12:46:08.894Z,8.03
2018-12-15T12:48:37.529Z,8.73
2018-12-15T12:51:05.012Z,12.00
2018-12-15T12:53:33.502Z,7.17
2018-12-15T12:56:01.525Z,7.73
2018-12-15T12:58:29.605Z,7.67
2018-12-15T13:00:57.829Z,8.20
2018-12-15T13:03:25.834Z,9.77
2018-12-15T13:05:54.348Z,9.53
2018-12-15T13:08:22.458Z,9.10
2018-12-15T13:10:50.459Z,6.53
2018-12-15T13:13:18.265Z,6.97
2018-12-15T13:15:46.315Z,6.40
2018-12-15T13:18:14.113Z,7.03
2018-12-15T13:20:42.215Z,7.27
2018-12-15T13:23:10.327Z,8.93
2018-12-15T13:25:38.037Z,10.93
2018-12-15T13:28:06.038Z,7.83
2018-12-15T13:30:34.811Z,10.30
2018-12-15T13:33:01.883Z,8.23
2018-12-15T13:35:29.953Z,8.43
2018-12-15T13:37:57.725Z,11.47
2018-12-15T13:40:25.681Z,8.53
2018-12-15T13:42:53.685Z,6.93
2018-12-15T13:45:22.285Z,7.60
2018-12-15T13:47:49.982Z,10.53
2018-12-15T13:50:17.986Z,8.87
2018-12-15T13:52:46.075Z,10.63
2018-12-15T13:55:14.099Z,9.70
2018-12-15T13:57:41.858Z,8.13
2018-12-15T14:00:10.166Z,9.17
2018-12-15T14:02:38.167Z,8.33
2018-12-15T14:05:06.212Z,11.20
2018-12-15T14:07:33.715Z,10.77
2018-12-15T14:10:01.711Z,9.37
2018-12-15T14:12:29.524Z,7.40
2018-12-15T14:14:57.194Z,9.67
2018-12-15T14:17:25.202Z,8.63
2018-12-15T14:19:53.247Z,10.67
2018-12-15T14:22:21.455Z,7.50
2018-12-15T14:24:49.446Z,9.67
2018-12-15T14:27:17.450Z,9.00
2018-12-15T14:29:45.989Z,8.90
2018-12-15T14:32:14.013Z,8.47
2018-12-15T14:34:42.003Z,9.23
2018-12-15T14:37:10.346Z,8.40
2018-12-15T14:39:39.424Z,8.23
2018-12-15T14:42:05.846Z,8.57
2018-12-15T14:44:34.339Z,11.73
2018-12-15T14:47:02.631Z,9.33
2018-12-15T14:49:30.630Z,9.37
2018-12-15T14:51:58.388Z,8.47
2018-12-15T14:54:26.397Z,7.57
2018-12-15T14:56:54.494Z,10.83
2018-12-15T14:59:22.529Z,8.03
2018-12-15T15:01:50.365Z,8.77
2018-12-15T15:04:18.502Z,8.63
2018-12-15T15:06:46.709Z,9.93
2018-12-15T15:09:14.591Z,9.33
2018-12-15T15:11:42.325Z,7.97
2018-12-15T15:14:10.397Z,7.10
2018-12-15T15:16:38.368Z,7.87
2018-12-15T15:19:06.493Z,7.00
2018-12-15T15:21:35.794Z,6.07
2018-12-15T15:24:03.534Z,7.60
2018-12-15T15:26:31.326Z,7.73
2018-12-15T15:28:59.375Z,7.70
2018-12-15T15:31:26.811Z,8.90
2018-12-15T15:33:54.858Z,10.30
2018-12-15T15:36:23.038Z,8.60
2018-12-15T15:38:51.239Z,9.80
2018-12-15T15:41:19.543Z,8.50
2018-12-15T15:43:47.579Z,9.70
2018-12-15T15:46:15.569Z,7.80
2018-12-15T15:48:43.255Z,9.93
2018-12-15T15:51:11.035Z,10.13
2018-12-15T15:53:39.049Z,6.10
2018-12-15T15:56:07.673Z,5.77
2018-12-15T15:58:35.388Z,5.50
2018-12-15T16:01:03.395Z,6.37
2018-12-15T16:03:31.389Z,7.83
2018-12-15T16:05:59.724Z,9.10
2018-12-15T16:08:27.780Z,8.27
2018-12-15T16:10:55.820Z,7.87
2018-12-15T16:13:24.340Z,7.03
2018-12-15T16:15:52.398Z,13.43
2018-12-15T16:18:20.081Z,9.20
2018-12-15T16:20:48.110Z,8.13
2018-12-15T16:23:16.187Z,6.50
2018-12-15T16:25:44.202Z,7.70
2018-12-15T16:28:12.126Z,10.03
2018-12-15T16:30:40.093Z,6.77
2018-12-15T16:33:08.257Z,7.60
2018-12-15T16:35:36.768Z,8.47
2018-12-15T16:38:04.753Z,6.47
2018-12-15T16:40:32.721Z,7.00
2018-12-15T16:43:01.146Z,6.93
2018-12-15T16:45:29.134Z,6.53
2018-12-15T16:47:57.241Z,9.20
2018-12-15T16:50:25.789Z,6.20
2018-12-15T16:52:53.774Z,7.97
2018-12-15T16:55:22.282Z,6.87
2018-12-15T16:57:51.107Z,8.37
2018-12-15T17:00:19.093Z,7.60
2018-12-15T17:02:47.178Z,10.13
2018-12-15T17:05:16.133Z,6.30
2018-12-15T17:07:44.144Z,9.10
2018-12-15T17:10:12.180Z,6.60
2018-12-15T17:12:40.222Z,9.23
2018-12-15T17:15:08.761Z,9.73
2018-12-15T17:17:36.754Z,9.77
2018-12-15T17:20:04.898Z,7.85
2018-12-15T17:22:32.910Z,7.60
2018-12-15T17:25:00.912Z,8.53
2018-12-15T17:27:31.819Z,9.63
2018-12-15T17:29:59.868Z,7.97
2018-12-15T17:32:28.270Z,10.47
2018-12-15T17:34:55.378Z,9.47
2018-12-15T17:37:23.387Z,6.47
2018-12-15T17:39:51.435Z,6.13
2018-12-15T17:42:19.457Z,10.07
2018-12-15T17:44:47.552Z,7.40
2018-12-15T17:47:15.576Z,8.23
2018-12-15T17:49:44.148Z,10.03
2018-12-15T17:52:11.856Z,9.17
2018-12-15T17:54:39.845Z,7.80
2018-12-15T17:57:07.949Z,10.47
2018-12-15T17:59:35.996Z,9.10
2018-12-15T18:02:03.718Z,9.13
2018-12-15T18:04:31.785Z,8.10
2018-12-15T18:06:59.495Z,8.73
2018-12-15T18:09:27.510Z,8.67
2018-12-15T18:11:55.911Z,9.87
2018-12-15T18:14:24.005Z,9.63
2018-12-15T18:16:52.087Z,8.00
2018-12-15T18:19:20.109Z,7.70
2018-12-15T18:21:47.908Z,7.33
2018-12-15T18:24:16.051Z,9.07
2018-12-15T18:26:44.136Z,8.73
2018-12-15T18:29:11.894Z,8.07
2018-12-15T18:31:39.964Z,9.07
2018-12-15T18:34:07.980Z,8.10
2018-12-15T18:36:36.040Z,7.43
2018-12-15T18:39:04.354Z,7.90
2018-12-15T18:41:32.480Z,7.70
2018-12-15T18:44:00.440Z,5.93
2018-12-15T18:46:28.437Z,9.07
2018-12-15T18:48:56.703Z,9.67
2018-12-15T18:51:24.756Z,9.27
2018-12-15T18:53:52.485Z,9.17
2018-12-15T18:56:20.236Z,8.40
2018-12-15T18:58:48.283Z,9.33
2018-12-15T19:01:16.296Z,9.83
2018-12-15T19:03:44.069Z,8.67
2018-12-15T19:06:11.790Z,9.83
2018-12-15T19:08:39.864Z,8.87
2018-12-15T19:11:07.990Z,9.13
2018-12-15T19:13:36.085Z,6.93
2018-12-15T19:16:03.883Z,9.13
2018-12-15T19:18:32.354Z,9.50
2018-12-15T19:21:00.508Z,10.20
2018-12-15T19:23:28.373Z,7.97
2018-12-15T19:25:56.203Z,6.73
2018-12-15T19:28:24.483Z,8.80
2018-12-15T19:30:52.523Z,8.30
2018-12-15T19:33:20.632Z,10.03
2018-12-15T19:35:48.657Z,8.43
2018-12-15T19:38:16.692Z,8.37
2018-12-15T19:40:44.759Z,10.17
2018-12-15T19:43:12.503Z,8.57
2018-12-15T19:45:40.509Z,9.87
2018-12-15T19:48:08.528Z,8.00
2018-12-15T19:50:36.564Z,8.30
2018-12-15T19:53:04.608Z,11.47
2018-12-15T19:55:32.720Z,10.13
2018-12-15T19:58:01.964Z,8.50
2018-12-15T20:00:29.919Z,8.80
2018-12-15T20:02:58.284Z,8.33
2018-12-15T20:05:26.399Z,9.20
2018-12-15T20:07:54.192Z,8.77
2018-12-15T20:10:22.494Z,8.07
2018-12-15T20:12:50.538Z,9.67
2018-12-15T20:15:18.658Z,9.50
2018-12-15T20:17:46.737Z,7.50
2018-12-15T20:20:14.483Z,10.87
2018-12-15T20:22:42.535Z,9.53
2018-12-15T20:25:10.687Z,11.67
2018-12-15T20:27:39.218Z,8.53
2018-12-15T20:30:07.499Z,9.07
2018-12-15T20:32:36.377Z,8.77
2018-12-15T20:35:04.589Z,9.70
2018-12-15T20:37:32.383Z,9.93
2018-12-15T20:40:00.859Z,9.33
2018-12-15T20:42:28.571Z,8.83
2018-12-15T20:44:56.628Z,11.57
2018-12-15T20:47:27.887Z,10.90
2018-12-15T20:49:52.793Z,11.47
2018-12-15T20:52:20.861Z,8.80
2018-12-15T20:54:49.371Z,8.83
2018-12-15T20:57:17.357Z,7.67
2018-12-15T20:59:45.388Z,10.63
2018-12-15T21:02:13.564Z,10.27
2018-12-15T21:04:41.585Z,10.23
2018-12-15T21:07:09.623Z,8.20
2018-12-15T21:09:38.021Z,9.93
2018-12-15T21:12:06.019Z,10.73
2018-12-15T21:14:34.145Z,11.17
2018-12-15T21:17:02.322Z,8.83
2018-12-15T21:19:30.323Z,8.40
2018-12-15T21:21:58.907Z,11.13
2018-12-15T21:24:27.599Z,9.77
2018-12-15T21:26:55.336Z,12.40
2018-12-15T21:29:23.962Z,10.67
2018-12-15T21:31:56.702Z,7.07
2018-12-15T21:34:19.769Z,10.53
2018-12-15T21:36:47.789Z,9.47
2018-12-15T21:39:16.636Z,8.90
2018-12-15T21:41:44.667Z,8.93
2018-12-15T21:44:12.701Z,9.57
2018-12-15T21:46:40.778Z,11.03
2018-12-15T21:49:08.814Z,11.70
2018-12-15T21:51:36.895Z,9.47
2018-12-15T21:54:04.930Z,10.30
2018-12-15T21:56:32.924Z,10.77
2018-12-15T21:59:00.904Z,9.27
2018-12-15T22:01:29.229Z,10.60
2018-12-15T22:03:57.757Z,9.33
2018-12-15T22:06:25.513Z,11.27
2018-12-15T22:08:53.846Z,8.93
2018-12-15T22:11:21.881Z,10.97
2018-12-15T22:13:50.256Z,11.67
2018-12-15T22:16:18.290Z,11.07
2018-12-15T22:18:46.868Z,11.60
2018-12-15T22:21:15.012Z,8.70
2018-12-15T22:23:43.738Z,10.73
2018-12-15T22:26:11.773Z,10.03
2018-12-15T22:28:39.556Z,10.30
2018-12-15T22:31:07.600Z,11.63
2018-12-15T22:33:35.613Z,9.47
2018-12-15T22:36:03.668Z,9.37
2018-12-15T22:38:32.831Z,8.55
2018-12-15T22:41:00.850Z,11.03
2018-12-15T22:43:28.864Z,10.07
2018-12-15T22:45:57.457Z,8.67
2018-12-15T22:48:25.478Z,11.17
2018-12-15T22:50:53.212Z,10.50
2018-12-15T22:53:21.257Z,12.97
2018-12-15T22:55:49.368Z,16.25
2018-12-15T22:58:17.224Z,10.40
2018-12-15T23:01:03.542Z,10.47
2018-12-15T23:03:31.336Z,12.37
2018-12-15T23:05:59.371Z,9.07
2018-12-15T23:08:27.780Z,10.50
2018-12-15T23:10:55.785Z,10.33
2018-12-15T23:13:23.491Z,10.50
2018-12-15T23:15:51.532Z,11.50
2018-12-15T23:18:19.588Z,12.57
2018-12-15T23:20:47.611Z,10.13
2018-12-15T23:23:15.922Z,10.93
2018-12-15T23:25:43.934Z,11.93
2018-12-15T23:28:11.955Z,13.00
2018-12-15T23:30:39.955Z,9.43
2018-12-15T23:33:07.977Z,11.30
2018-12-15T23:35:36.582Z,9.43
2018-12-15T23:38:04.671Z,11.27
2018-12-15T23:40:32.709Z,13.25
2018-12-15T23:43:00.475Z,12.90
2018-12-15T23:45:28.284Z,11.33
2018-12-15T23:47:56.652Z,12.23
2018-12-15T23:50:24.757Z,12.83
2018-12-15T23:52:52.890Z,11.60
2018-12-15T23:55:21.572Z,11.37
2018-12-15T23:57:49.584Z,12.60
